sensor_id;sensor_type;location;lat;lon;timestamp;P1;durP1;ratioP1;P2;durP2;ratioP2
286;SDS011;127;48.770;9.212;2023-05-17T00:00:42;4.67;;;2.37;;
286;SDS011;127;48.770;9.212;2023-05-17T00:03:24;3.73;;;2.60;;
286;SDS011;127;48.770;9.212;2023-05-17T00:05:57;6.60;;;2.70;;
286;SDS011;127;48.770;9.212;2023-05-17T00:08:53;4.80;;;2.47;;
286;SDS011;127;48.770;9.212;2023-05-17T00:11:26;9.55;;;2.70;;
286;SDS011;127;48.770;9.212;2023-05-17T00:14:00;2.72;;;2.60;;
286;SDS011;127;48.770;9.212;2023-05-17T00:16:37;7.83;;;2.80;;
286;SDS011;127;48.770;9.212;2023-05-17T00:19:07;10.00;;;2.97;;
286;SDS011;127;48.770;9.212;2023-05-17T00:21:39;5.00;;;2.57;;
286;SDS011;127;48.770;9.212;2023-05-17T00:52:12;11.60;;;3.58;;
286;SDS011;127;48.770;9.212;2023-05-17T00:54:42;3.58;;;2.65;;
286;SDS011;127;48.770;9.212;2023-05-17T00:57:13;9.13;;;3.23;;
286;SDS011;127;48.770;9.212;2023-05-17T00:59:43;4.45;;;2.78;;
286;SDS011;127;48.770;9.212;2023-05-17T01:02:12;5.30;;;2.78;;
286;SDS011;127;48.770;9.212;2023-05-17T01:05:19;3.75;;;2.80;;
286;SDS011;127;48.770;9.212;2023-05-17T02:28:11;10.15;;;3.10;;
286;SDS011;127;48.770;9.212;2023-05-17T02:30:42;5.47;;;3.00;;
286;SDS011;127;48.770;9.212;2023-05-17T02:33:18;4.70;;;3.10;;
286;SDS011;127;48.770;9.212;2023-05-17T02:35:50;6.35;;;2.85;;
286;SDS011;127;48.770;9.212;2023-05-17T02:38:26;8.85;;;3.90;;
286;SDS011;127;48.770;9.212;2023-05-17T02:40:57;7.28;;;3.25;;
286;SDS011;127;48.770;9.212;2023-05-17T02:43:35;9.75;;;3.20;;
286;SDS011;127;48.770;9.212;2023-05-17T02:55:13;5.10;;;2.92;;
286;SDS011;127;48.770;9.212;2023-05-17T02:57:49;4.47;;;3.10;;
286;SDS011;127;48.770;9.212;2023-05-17T03:00:24;3.15;;;2.60;;
286;SDS011;127;48.770;9.212;2023-05-17T03:03:02;4.93;;;3.05;;
286;SDS011;127;48.770;9.212;2023-05-17T03:05:33;13.40;;;3.20;;
286;SDS011;127;48.770;9.212;2023-05-17T03:08:02;4.70;;;3.25;;
286;SDS011;127;48.770;9.212;2023-05-17T03:10:36;8.18;;;3.83;;
286;SDS011;127;48.770;9.212;2023-05-17T03:13:09;11.80;;;3.63;;
286;SDS011;127;48.770;9.212;2023-05-17T03:15:45;6.15;;;2.90;;
286;SDS011;127;48.770;9.212;2023-05-17T03:18:19;5.15;;;3.17;;
286;SDS011;127;48.770;9.212;2023-05-17T03:20:52;7.68;;;4.00;;
286;SDS011;127;48.770;9.212;2023-05-17T03:23:21;7.45;;;3.60;;
286;SDS011;127;48.770;9.212;2023-05-17T03:25:53;4.43;;;3.40;;
286;SDS011;127;48.770;9.212;2023-05-17T03:28:49;7.43;;;3.45;;
286;SDS011;127;48.770;9.212;2023-05-17T03:31:26;4.90;;;3.35;;
286;SDS011;127;48.770;9.212;2023-05-17T03:34:02;7.68;;;3.20;;
286;SDS011;127;48.770;9.212;2023-05-17T03:36:32;6.95;;;3.50;;
286;SDS011;127;48.770;9.212;2023-05-17T03:39:07;7.57;;;3.60;;
286;SDS011;127;48.770;9.212;2023-05-17T03:42:06;6.70;;;3.55;;
286;SDS011;127;48.770;9.212;2023-05-17T03:44:39;7.95;;;3.55;;
286;SDS011;127;48.770;9.212;2023-05-17T03:47:25;6.50;;;3.85;;
286;SDS011;127;48.770;9.212;2023-05-17T03:49:55;13.93;;;4.15;;
286;SDS011;127;48.770;9.212;2023-05-17T03:52:49;6.00;;;4.00;;
286;SDS011;127;48.770;9.212;2023-05-17T03:55:26;8.80;;;3.42;;
286;SDS011;127;48.770;9.212;2023-05-17T03:57:55;7.32;;;3.70;;
286;SDS011;127;48.770;9.212;2023-05-17T04:00:30;4.68;;;4.20;;
286;SDS011;127;48.770;9.212;2023-05-17T04:03:05;6.68;;;3.40;;
286;SDS011;127;48.770;9.212;2023-05-17T04:05:39;7.30;;;3.70;;
286;SDS011;127;48.770;9.212;2023-05-17T04:08:10;5.53;;;3.88;;
286;SDS011;127;48.770;9.212;2023-05-17T04:10:56;7.25;;;3.47;;
286;SDS011;127;48.770;9.212;2023-05-17T04:13:35;10.25;;;3.67;;
286;SDS011;127;48.770;9.212;2023-05-17T04:16:12;4.65;;;4.10;;
286;SDS011;127;48.770;9.212;2023-05-17T04:19:03;13.45;;;3.55;;
286;SDS011;127;48.770;9.212;2023-05-17T04:21:33;9.82;;;4.00;;
286;SDS011;127;48.770;9.212;2023-05-17T04:24:16;8.68;;;3.75;;
286;SDS011;127;48.770;9.212;2023-05-17T04:26:47;8.05;;;3.90;;
286;SDS011;127;48.770;9.212;2023-05-17T04:29:18;7.22;;;3.60;;
286;SDS011;127;48.770;9.212;2023-05-17T04:31:47;4.90;;;3.10;;
286;SDS011;127;48.770;9.212;2023-05-17T04:34:23;7.05;;;3.67;;
286;SDS011;127;48.770;9.212;2023-05-17T04:36:55;5.22;;;3.72;;
286;SDS011;127;48.770;9.212;2023-05-17T04:39:27;6.75;;;4.28;;
286;SDS011;127;48.770;9.212;2023-05-17T04:41:58;14.05;;;4.10;;
286;SDS011;127;48.770;9.212;2023-05-17T04:44:44;6.65;;;3.55;;
286;SDS011;127;48.770;9.212;2023-05-17T04:47:14;3.45;;;3.13;;
286;SDS011;127;48.770;9.212;2023-05-17T04:49:50;10.77;;;3.80;;
286;SDS011;127;48.770;9.212;2023-05-17T04:52:21;9.33;;;3.33;;
286;SDS011;127;48.770;9.212;2023-05-17T04:54:50;5.40;;;3.17;;
286;SDS011;127;48.770;9.212;2023-05-17T04:57:26;4.70;;;3.37;;
286;SDS011;127;48.770;9.212;2023-05-17T05:00:10;8.50;;;3.53;;
286;SDS011;127;48.770;9.212;2023-05-17T05:02:45;12.90;;;3.80;;
286;SDS011;127;48.770;9.212;2023-05-17T05:05:19;11.47;;;3.93;;
286;SDS011;127;48.770;9.212;2023-05-17T05:07:57;11.57;;;3.80;;
286;SDS011;127;48.770;9.212;2023-05-17T05:10:27;4.53;;;2.80;;
286;SDS011;127;48.770;9.212;2023-05-17T05:13:03;7.90;;;3.40;;
286;SDS011;127;48.770;9.212;2023-05-17T05:15:37;14.70;;;3.50;;
286;SDS011;127;48.770;9.212;2023-05-17T05:18:13;3.90;;;2.80;;
286;SDS011;127;48.770;9.212;2023-05-17T05:20:47;5.00;;;3.40;;
286;SDS011;127;48.770;9.212;2023-05-17T05:23:21;5.20;;;3.00;;
286;SDS011;127;48.770;9.212;2023-05-17T05:26:04;15.83;;;3.50;;
286;SDS011;127;48.770;9.212;2023-05-17T05:28:38;11.50;;;4.03;;
286;SDS011;127;48.770;9.212;2023-05-17T05:31:13;3.95;;;2.97;;
286;SDS011;127;48.770;9.212;2023-05-17T05:34:13;8.93;;;3.17;;
286;SDS011;127;48.770;9.212;2023-05-17T05:36:38;13.40;;;3.10;;
286;SDS011;127;48.770;9.212;2023-05-17T05:39:21;11.90;;;3.03;;
286;SDS011;127;48.770;9.212;2023-05-17T05:41:54;6.13;;;3.30;;
286;SDS011;127;48.770;9.212;2023-05-17T05:47:37;6.40;;;4.23;;
286;SDS011;127;48.770;9.212;2023-05-17T05:50:06;13.40;;;3.53;;
286;SDS011;127;48.770;9.212;2023-05-17T05:52:44;16.87;;;4.00;;
286;SDS011;127;48.770;9.212;2023-05-17T05:55:15;6.37;;;3.33;;
286;SDS011;127;48.770;9.212;2023-05-17T05:57:46;7.57;;;3.67;;
286;SDS011;127;48.770;9.212;2023-05-17T06:00:22;4.30;;;3.00;;
286;SDS011;127;48.770;9.212;2023-05-17T06:02:55;11.90;;;3.07;;
286;SDS011;127;48.770;9.212;2023-05-17T06:05:24;6.70;;;3.63;;
286;SDS011;127;48.770;9.212;2023-05-17T06:08:03;4.40;;;3.30;;
286;SDS011;127;48.770;9.212;2023-05-17T06:10:35;6.00;;;3.57;;
286;SDS011;127;48.770;9.212;2023-05-17T06:13:06;7.13;;;3.03;;
286;SDS011;127;48.770;9.212;2023-05-17T06:15:45;8.63;;;3.33;;
286;SDS011;127;48.770;9.212;2023-05-17T06:18:15;6.53;;;3.40;;
286;SDS011;127;48.770;9.212;2023-05-17T06:20:44;6.90;;;3.43;;
286;SDS011;127;48.770;9.212;2023-05-17T06:23:47;17.33;;;4.40;;
286;SDS011;127;48.770;9.212;2023-05-17T06:26:23;5.63;;;3.20;;
286;SDS011;127;48.770;9.212;2023-05-17T06:28:52;15.07;;;3.93;;
286;SDS011;127;48.770;9.212;2023-05-17T06:31:28;8.90;;;3.50;;
286;SDS011;127;48.770;9.212;2023-05-17T06:33:57;6.43;;;4.40;;
286;SDS011;127;48.770;9.212;2023-05-17T06:36:38;7.77;;;3.57;;
286;SDS011;127;48.770;9.212;2023-05-17T06:39:11;11.57;;;3.67;;
286;SDS011;127;48.770;9.212;2023-05-17T06:44:42;17.73;;;4.70;;
286;SDS011;127;48.770;9.212;2023-05-17T06:47:32;13.17;;;3.67;;
286;SDS011;127;48.770;9.212;2023-05-17T06:50:04;14.63;;;3.50;;
286;SDS011;127;48.770;9.212;2023-05-17T06:52:45;9.20;;;3.83;;
286;SDS011;127;48.770;9.212;2023-05-17T06:55:55;13.83;;;4.20;;
286;SDS011;127;48.770;9.212;2023-05-17T06:58:45;15.27;;;4.73;;
286;SDS011;127;48.770;9.212;2023-05-17T07:01:19;12.10;;;4.10;;
286;SDS011;127;48.770;9.212;2023-05-17T07:04:59;10.63;;;3.87;;
286;SDS011;127;48.770;9.212;2023-05-17T07:18:04;20.30;;;4.80;;
286;SDS011;127;48.770;9.212;2023-05-17T07:41:55;14.70;;;3.80;;
286;SDS011;127;48.770;9.212;2023-05-17T07:45:05;7.33;;;3.73;;
286;SDS011;127;48.770;9.212;2023-05-17T07:47:36;13.93;;;3.93;;
286;SDS011;127;48.770;9.212;2023-05-17T07:50:17;20.87;;;4.20;;
286;SDS011;127;48.770;9.212;2023-05-17T07:52:46;8.60;;;4.20;;
286;SDS011;127;48.770;9.212;2023-05-17T07:55:19;10.83;;;3.97;;
286;SDS011;127;48.770;9.212;2023-05-17T07:57:53;11.13;;;4.20;;
286;SDS011;127;48.770;9.212;2023-05-17T08:00:22;10.10;;;3.90;;
286;SDS011;127;48.770;9.212;2023-05-17T08:02:55;7.50;;;3.93;;
286;SDS011;127;48.770;9.212;2023-05-17T08:05:24;17.23;;;4.57;;
286;SDS011;127;48.770;9.212;2023-05-17T08:07:53;9.23;;;3.90;;
286;SDS011;127;48.770;9.212;2023-05-17T08:10:29;13.03;;;3.90;;
286;SDS011;127;48.770;9.212;2023-05-17T08:13:01;6.53;;;3.80;;
286;SDS011;127;48.770;9.212;2023-05-17T08:15:33;30.43;;;4.50;;
286;SDS011;127;48.770;9.212;2023-05-17T08:18:02;9.80;;;3.70;;
286;SDS011;127;48.770;9.212;2023-05-17T08:20:31;7.47;;;3.60;;
286;SDS011;127;48.770;9.212;2023-05-17T08:23:01;11.30;;;4.40;;
286;SDS011;127;48.770;9.212;2023-05-17T08:25:32;8.53;;;3.80;;
286;SDS011;127;48.770;9.212;2023-05-17T08:28:05;8.63;;;3.93;;
286;SDS011;127;48.770;9.212;2023-05-17T08:30:38;8.73;;;4.30;;
286;SDS011;127;48.770;9.212;2023-05-17T08:33:10;6.47;;;4.20;;
286;SDS011;127;48.770;9.212;2023-05-17T08:35:52;11.10;;;4.13;;
286;SDS011;127;48.770;9.212;2023-05-17T08:38:25;14.13;;;4.43;;
286;SDS011;127;48.770;9.212;2023-05-17T08:41:04;11.83;;;4.33;;
286;SDS011;127;48.770;9.212;2023-05-17T08:43:46;6.67;;;3.97;;
286;SDS011;127;48.770;9.212;2023-05-17T08:46:20;12.23;;;4.27;;
286;SDS011;127;48.770;9.212;2023-05-17T08:49:04;13.23;;;4.37;;
286;SDS011;127;48.770;9.212;2023-05-17T08:54:24;8.30;;;4.20;;
286;SDS011;127;48.770;9.212;2023-05-17T08:57:08;9.53;;;4.17;;
286;SDS011;127;48.770;9.212;2023-05-17T08:59:44;11.23;;;4.80;;
286;SDS011;127;48.770;9.212;2023-05-17T09:02:14;9.03;;;3.70;;
286;SDS011;127;48.770;9.212;2023-05-17T09:04:44;10.80;;;3.53;;
286;SDS011;127;48.770;9.212;2023-05-17T09:07:14;8.30;;;4.37;;
286;SDS011;127;48.770;9.212;2023-05-17T09:09:44;10.90;;;4.37;;
286;SDS011;127;48.770;9.212;2023-05-17T09:12:13;13.30;;;4.27;;
286;SDS011;127;48.770;9.212;2023-05-17T09:14:44;10.97;;;3.80;;
286;SDS011;127;48.770;9.212;2023-05-17T09:17:16;12.20;;;4.07;;
286;SDS011;127;48.770;9.212;2023-05-17T09:19:47;8.60;;;4.30;;
286;SDS011;127;48.770;9.212;2023-05-17T09:22:18;16.00;;;4.43;;
286;SDS011;127;48.770;9.212;2023-05-17T09:24:48;7.27;;;3.67;;
286;SDS011;127;48.770;9.212;2023-05-17T09:27:20;11.23;;;3.90;;
286;SDS011;127;48.770;9.212;2023-05-17T09:29:52;8.33;;;3.70;;
286;SDS011;127;48.770;9.212;2023-05-17T09:32:22;9.50;;;4.17;;
286;SDS011;127;48.770;9.212;2023-05-17T09:34:54;10.50;;;4.50;;
286;SDS011;127;48.770;9.212;2023-05-17T09:37:27;13.50;;;4.63;;
286;SDS011;127;48.770;9.212;2023-05-17T09:40:06;10.67;;;4.07;;
286;SDS011;127;48.770;9.212;2023-05-17T09:42:49;9.37;;;3.77;;
286;SDS011;127;48.770;9.212;2023-05-17T09:45:24;14.50;;;4.10;;
286;SDS011;127;48.770;9.212;2023-05-17T09:47:53;7.60;;;3.83;;
286;SDS011;127;48.770;9.212;2023-05-17T09:50:32;25.97;;;5.07;;
286;SDS011;127;48.770;9.212;2023-05-17T09:53:21;5.63;;;3.37;;
286;SDS011;127;48.770;9.212;2023-05-17T09:55:51;8.20;;;3.97;;
286;SDS011;127;48.770;9.212;2023-05-17T09:58:21;10.97;;;3.50;;
286;SDS011;127;48.770;9.212;2023-05-17T10:00:57;6.77;;;3.00;;
286;SDS011;127;48.770;9.212;2023-05-17T10:03:44;8.13;;;3.40;;
286;SDS011;127;48.770;9.212;2023-05-17T10:06:20;8.00;;;3.83;;
286;SDS011;127;48.770;9.212;2023-05-17T10:08:52;7.70;;;3.80;;
286;SDS011;127;48.770;9.212;2023-05-17T10:11:46;7.27;;;3.10;;
286;SDS011;127;48.770;9.212;2023-05-17T10:14:22;8.50;;;3.80;;
286;SDS011;127;48.770;9.212;2023-05-17T10:19:59;7.10;;;3.50;;
286;SDS011;127;48.770;9.212;2023-05-17T10:22:38;6.37;;;3.23;;
286;SDS011;127;48.770;9.212;2023-05-17T10:25:10;7.90;;;3.23;;
286;SDS011;127;48.770;9.212;2023-05-17T10:36:50;16.77;;;3.50;;
286;SDS011;127;48.770;9.212;2023-05-17T10:39:26;6.80;;;3.40;;
286;SDS011;127;48.770;9.212;2023-05-17T10:43:13;12.70;;;3.70;;
286;SDS011;127;48.770;9.212;2023-05-17T10:46:16;8.00;;;3.73;;
286;SDS011;127;48.770;9.212;2023-05-17T10:54:47;5.30;;;3.00;;
286;SDS011;127;48.770;9.212;2023-05-17T10:59:41;7.63;;;3.93;;
286;SDS011;127;48.770;9.212;2023-05-17T11:07:22;5.77;;;3.33;;
286;SDS011;127;48.770;9.212;2023-05-17T11:10:22;9.97;;;4.13;;
286;SDS011;127;48.770;9.212;2023-05-17T11:19:58;7.90;;;3.40;;
286;SDS011;127;48.770;9.212;2023-05-17T11:22:49;12.67;;;4.30;;
286;SDS011;127;48.770;9.212;2023-05-17T11:25:26;11.27;;;4.20;;
286;SDS011;127;48.770;9.212;2023-05-17T11:28:00;7.57;;;3.23;;
286;SDS011;127;48.770;9.212;2023-05-17T11:31:13;12.20;;;4.10;;
286;SDS011;127;48.770;9.212;2023-05-17T11:33:36;10.67;;;4.17;;
286;SDS011;127;48.770;9.212;2023-05-17T11:36:28;7.33;;;4.20;;
286;SDS011;127;48.770;9.212;2023-05-17T11:39:14;7.67;;;3.80;;
286;SDS011;127;48.770;9.212;2023-05-17T11:41:51;9.67;;;4.30;;
286;SDS011;127;48.770;9.212;2023-05-17T11:44:32;13.80;;;4.73;;
286;SDS011;127;48.770;9.212;2023-05-17T11:47:17;9.70;;;4.00;;
286;SDS011;127;48.770;9.212;2023-05-17T11:49:50;11.23;;;3.80;;
286;SDS011;127;48.770;9.212;2023-05-17T11:52:34;10.93;;;4.20;;
286;SDS011;127;48.770;9.212;2023-05-17T12:05:31;14.00;;;6.40;;
286;SDS011;127;48.770;9.212;2023-05-17T12:08:20;18.77;;;7.30;;
286;SDS011;127;48.770;9.212;2023-05-17T12:11:22;8.63;;;4.33;;
286;SDS011;127;48.770;9.212;2023-05-17T12:14:01;18.13;;;6.20;;
286;SDS011;127;48.770;9.212;2023-05-17T12:16:41;9.47;;;4.80;;
286;SDS011;127;48.770;9.212;2023-05-17T12:19:17;9.50;;;4.00;;
286;SDS011;127;48.770;9.212;2023-05-17T12:21:53;12.30;;;4.13;;
286;SDS011;127;48.770;9.212;2023-05-17T12:24:58;9.27;;;4.20;;
286;SDS011;127;48.770;9.212;2023-05-17T12:27:31;9.60;;;4.70;;
286;SDS011;127;48.770;9.212;2023-05-17T12:30:17;10.43;;;4.60;;
286;SDS011;127;48.770;9.212;2023-05-17T12:33:00;15.33;;;4.10;;
286;SDS011;127;48.770;9.212;2023-05-17T12:35:32;7.60;;;4.33;;
286;SDS011;127;48.770;9.212;2023-05-17T12:38:16;10.10;;;4.20;;
286;SDS011;127;48.770;9.212;2023-05-17T12:54:36;12.03;;;3.10;;
286;SDS011;127;48.770;9.212;2023-05-17T12:57:13;7.33;;;3.80;;
286;SDS011;127;48.770;9.212;2023-05-17T12:59:49;9.97;;;4.53;;
286;SDS011;127;48.770;9.212;2023-05-17T13:02:19;9.63;;;4.20;;
286;SDS011;127;48.770;9.212;2023-05-17T13:04:51;14.40;;;4.40;;
286;SDS011;127;48.770;9.212;2023-05-17T13:07:20;10.60;;;3.40;;
286;SDS011;127;48.770;9.212;2023-05-17T13:09:52;5.20;;;3.07;;
286;SDS011;127;48.770;9.212;2023-05-17T13:12:22;5.43;;;2.83;;
286;SDS011;127;48.770;9.212;2023-05-17T13:15:05;11.60;;;3.70;;
286;SDS011;127;48.770;9.212;2023-05-17T13:17:46;10.63;;;3.83;;
286;SDS011;127;48.770;9.212;2023-05-17T13:20:16;11.80;;;3.30;;
286;SDS011;127;48.770;9.212;2023-05-17T13:22:46;10.37;;;3.23;;
286;SDS011;127;48.770;9.212;2023-05-17T13:25:19;8.47;;;3.43;;
286;SDS011;127;48.770;9.212;2023-05-17T13:27:48;7.20;;;3.73;;
286;SDS011;127;48.770;9.212;2023-05-17T13:30:19;8.30;;;3.33;;
286;SDS011;127;48.770;9.212;2023-05-17T13:32:48;8.50;;;3.67;;
286;SDS011;127;48.770;9.212;2023-05-17T13:35:18;12.27;;;3.90;;
286;SDS011;127;48.770;9.212;2023-05-17T13:37:47;10.17;;;4.43;;
286;SDS011;127;48.770;9.212;2023-05-17T13:40:20;7.70;;;3.50;;
286;SDS011;127;48.770;9.212;2023-05-17T13:42:48;10.47;;;4.20;;
286;SDS011;127;48.770;9.212;2023-05-17T13:45:20;7.30;;;3.80;;
286;SDS011;127;48.770;9.212;2023-05-17T13:47:51;14.00;;;4.50;;
286;SDS011;127;48.770;9.212;2023-05-17T13:50:20;8.90;;;4.03;;
286;SDS011;127;48.770;9.212;2023-05-17T13:52:54;7.30;;;3.50;;
286;SDS011;127;48.770;9.212;2023-05-17T13:55:28;7.37;;;3.13;;
286;SDS011;127;48.770;9.212;2023-05-17T13:57:57;6.87;;;3.27;;
286;SDS011;127;48.770;9.212;2023-05-17T14:00:30;10.13;;;3.70;;
286;SDS011;127;48.770;9.212;2023-05-17T14:03:11;6.93;;;3.27;;
286;SDS011;127;48.770;9.212;2023-05-17T14:05:44;8.67;;;4.00;;
286;SDS011;127;48.770;9.212;2023-05-17T14:08:18;9.00;;;3.93;;
286;SDS011;127;48.770;9.212;2023-05-17T14:10:53;7.13;;;3.53;;
286;SDS011;127;48.770;9.212;2023-05-17T14:13:22;12.93;;;4.67;;
286;SDS011;127;48.770;9.212;2023-05-17T14:15:51;7.13;;;3.23;;
286;SDS011;127;48.770;9.212;2023-05-17T14:18:20;11.07;;;4.40;;
286;SDS011;127;48.770;9.212;2023-05-17T14:20:50;7.70;;;3.90;;
286;SDS011;127;48.770;9.212;2023-05-17T14:23:20;9.07;;;3.63;;
286;SDS011;127;48.770;9.212;2023-05-17T14:25:49;8.63;;;3.50;;
286;SDS011;127;48.770;9.212;2023-05-17T14:28:31;10.30;;;3.63;;
286;SDS011;127;48.770;9.212;2023-05-17T14:31:02;18.40;;;4.10;;
286;SDS011;127;48.770;9.212;2023-05-17T14:33:30;6.43;;;3.57;;
286;SDS011;127;48.770;9.212;2023-05-17T14:36:04;7.63;;;3.83;;
286;SDS011;127;48.770;9.212;2023-05-17T14:38:34;10.77;;;4.20;;
286;SDS011;127;48.770;9.212;2023-05-17T14:41:06;5.80;;;3.30;;
286;SDS011;127;48.770;9.212;2023-05-17T14:43:37;8.43;;;3.60;;
286;SDS011;127;48.770;9.212;2023-05-17T14:46:10;6.50;;;3.10;;
286;SDS011;127;48.770;9.212;2023-05-17T14:48:39;9.97;;;3.90;;
286;SDS011;127;48.770;9.212;2023-05-17T14:51:13;9.60;;;3.83;;
286;SDS011;127;48.770;9.212;2023-05-17T14:53:42;8.40;;;3.80;;
286;SDS011;127;48.770;9.212;2023-05-17T14:56:14;8.33;;;4.03;;
286;SDS011;127;48.770;9.212;2023-05-17T14:58:47;11.70;;;3.90;;
286;SDS011;127;48.770;9.212;2023-05-17T15:01:16;7.87;;;3.10;;
286;SDS011;127;48.770;9.212;2023-05-17T15:03:47;9.13;;;3.83;;
286;SDS011;127;48.770;9.212;2023-05-17T15:06:16;10.93;;;3.77;;
286;SDS011;127;48.770;9.212;2023-05-17T15:08:48;10.70;;;4.17;;
286;SDS011;127;48.770;9.212;2023-05-17T15:11:23;7.77;;;4.40;;
286;SDS011;127;48.770;9.212;2023-05-17T15:13:51;9.33;;;3.60;;
286;SDS011;127;48.770;9.212;2023-05-17T15:16:25;7.90;;;4.37;;
286;SDS011;127;48.770;9.212;2023-05-17T15:18:54;6.07;;;3.53;;
286;SDS011;127;48.770;9.212;2023-05-17T15:21:23;10.23;;;4.23;;
286;SDS011;127;48.770;9.212;2023-05-17T15:23:53;14.73;;;4.20;;
286;SDS011;127;48.770;9.212;2023-05-17T15:26:28;6.77;;;3.97;;
286;SDS011;127;48.770;9.212;2023-05-17T15:29:02;10.33;;;4.50;;
286;SDS011;127;48.770;9.212;2023-05-17T15:31:32;9.47;;;4.60;;
286;SDS011;127;48.770;9.212;2023-05-17T15:34:04;8.73;;;4.10;;
286;SDS011;127;48.770;9.212;2023-05-17T15:36:35;10.43;;;4.23;;
286;SDS011;127;48.770;9.212;2023-05-17T15:39:04;9.00;;;4.20;;
286;SDS011;127;48.770;9.212;2023-05-17T15:41:57;9.07;;;4.67;;
286;SDS011;127;48.770;9.212;2023-05-17T15:44:33;8.80;;;3.70;;
286;SDS011;127;48.770;9.212;2023-05-17T15:47:04;8.70;;;4.63;;
286;SDS011;127;48.770;9.212;2023-05-17T15:49:44;6.60;;;3.97;;
286;SDS011;127;48.770;9.212;2023-05-17T15:52:15;12.63;;;3.90;;
286;SDS011;127;48.770;9.212;2023-05-17T15:54:48;11.80;;;3.80;;
286;SDS011;127;48.770;9.212;2023-05-17T15:57:22;10.13;;;4.13;;
286;SDS011;127;48.770;9.212;2023-05-17T15:59:52;10.53;;;4.20;;
286;SDS011;127;48.770;9.212;2023-05-17T16:02:24;6.23;;;3.50;;
286;SDS011;127;48.770;9.212;2023-05-17T16:04:52;10.53;;;3.93;;
286;SDS011;127;48.770;9.212;2023-05-17T16:07:23;11.27;;;4.00;;
286;SDS011;127;48.770;9.212;2023-05-17T16:09:58;16.93;;;4.70;;
286;SDS011;127;48.770;9.212;2023-05-17T16:12:29;12.60;;;4.10;;
286;SDS011;127;48.770;9.212;2023-05-17T16:14:58;10.03;;;3.77;;
286;SDS011;127;48.770;9.212;2023-05-17T16:17:27;7.83;;;3.73;;
286;SDS011;127;48.770;9.212;2023-05-17T16:20:11;6.00;;;3.50;;
286;SDS011;127;48.770;9.212;2023-05-17T16:22:42;8.40;;;3.60;;
286;SDS011;127;48.770;9.212;2023-05-17T16:25:15;8.80;;;3.73;;
286;SDS011;127;48.770;9.212;2023-05-17T16:27:47;7.43;;;3.90;;
286;SDS011;127;48.770;9.212;2023-05-17T16:30:16;8.50;;;4.30;;
286;SDS011;127;48.770;9.212;2023-05-17T16:32:53;13.57;;;4.20;;
286;SDS011;127;48.770;9.212;2023-05-17T16:35:25;12.10;;;3.70;;
286;SDS011;127;48.770;9.212;2023-05-17T16:37:55;10.60;;;4.37;;
286;SDS011;127;48.770;9.212;2023-05-17T16:40:29;11.20;;;4.70;;
286;SDS011;127;48.770;9.212;2023-05-17T16:43:02;9.90;;;4.70;;
286;SDS011;127;48.770;9.212;2023-05-17T16:45:32;10.40;;;4.33;;
286;SDS011;127;48.770;9.212;2023-05-17T16:48:01;8.03;;;3.90;;
286;SDS011;127;48.770;9.212;2023-05-17T16:53:38;8.30;;;3.90;;
286;SDS011;127;48.770;9.212;2023-05-17T16:56:11;8.63;;;4.00;;
286;SDS011;127;48.770;9.212;2023-05-17T16:58:43;6.70;;;3.50;;
286;SDS011;127;48.770;9.212;2023-05-17T17:01:14;12.67;;;3.90;;
286;SDS011;127;48.770;9.212;2023-05-17T17:03:45;6.73;;;3.97;;
286;SDS011;127;48.770;9.212;2023-05-17T17:06:16;7.60;;;4.43;;
286;SDS011;127;48.770;9.212;2023-05-17T17:08:45;13.10;;;3.80;;
286;SDS011;127;48.770;9.212;2023-05-17T17:11:14;8.40;;;4.20;;
286;SDS011;127;48.770;9.212;2023-05-17T17:13:53;13.67;;;4.47;;
286;SDS011;127;48.770;9.212;2023-05-17T17:16:27;7.60;;;4.00;;
286;SDS011;127;48.770;9.212;2023-05-17T17:18:56;15.50;;;4.10;;
286;SDS011;127;48.770;9.212;2023-05-17T17:21:27;13.17;;;4.40;;
286;SDS011;127;48.770;9.212;2023-05-17T17:24:03;9.60;;;4.30;;
286;SDS011;127;48.770;9.212;2023-05-17T17:26:34;7.63;;;3.97;;
286;SDS011;127;48.770;9.212;2023-05-17T17:29:12;12.13;;;3.80;;
286;SDS011;127;48.770;9.212;2023-05-17T17:31:47;11.70;;;4.47;;
286;SDS011;127;48.770;9.212;2023-05-17T17:34:19;13.80;;;5.00;;
286;SDS011;127;48.770;9.212;2023-05-17T17:36:51;7.47;;;3.70;;
286;SDS011;127;48.770;9.212;2023-05-17T17:39:33;7.17;;;3.70;;
286;SDS011;127;48.770;9.212;2023-05-17T17:42:21;10.77;;;4.30;;
286;SDS011;127;48.770;9.212;2023-05-17T17:45:25;8.10;;;3.60;;
286;SDS011;127;48.770;9.212;2023-05-17T17:48:00;10.10;;;4.07;;
286;SDS011;127;48.770;9.212;2023-05-17T17:50:54;10.47;;;4.83;;
286;SDS011;127;48.770;9.212;2023-05-17T17:53:36;10.33;;;4.53;;
286;SDS011;127;48.770;9.212;2023-05-17T17:56:08;8.10;;;4.10;;
286;SDS011;127;48.770;9.212;2023-05-17T17:58:37;10.00;;;3.50;;
286;SDS011;127;48.770;9.212;2023-05-17T18:01:12;8.53;;;4.90;;
286;SDS011;127;48.770;9.212;2023-05-17T18:03:48;10.43;;;4.13;;
286;SDS011;127;48.770;9.212;2023-05-17T18:06:17;8.07;;;3.83;;
286;SDS011;127;48.770;9.212;2023-05-17T18:08:46;8.90;;;3.80;;
286;SDS011;127;48.770;9.212;2023-05-17T18:11:14;8.03;;;3.90;;
286;SDS011;127;48.770;9.212;2023-05-17T18:13:43;8.20;;;3.67;;
286;SDS011;127;48.770;9.212;2023-05-17T18:16:15;6.40;;;3.93;;
286;SDS011;127;48.770;9.212;2023-05-17T18:18:44;5.07;;;3.73;;
286;SDS011;127;48.770;9.212;2023-05-17T18:21:43;7.93;;;3.97;;
286;SDS011;127;48.770;9.212;2023-05-17T18:24:41;8.87;;;4.10;;
286;SDS011;127;48.770;9.212;2023-05-17T18:26:57;7.53;;;4.27;;
286;SDS011;127;48.770;9.212;2023-05-17T18:29:32;13.37;;;3.87;;
286;SDS011;127;48.770;9.212;2023-05-17T18:32:07;11.70;;;4.23;;
286;SDS011;127;48.770;9.212;2023-05-17T18:34:38;6.50;;;4.00;;
286;SDS011;127;48.770;9.212;2023-05-17T18:37:13;16.60;;;4.73;;
286;SDS011;127;48.770;9.212;2023-05-17T18:39:41;9.37;;;4.47;;
286;SDS011;127;48.770;9.212;2023-05-17T18:42:10;7.97;;;4.10;;
286;SDS011;127;48.770;9.212;2023-05-17T18:44:39;11.43;;;4.60;;
286;SDS011;127;48.770;9.212;2023-05-17T18:47:11;11.33;;;4.43;;
286;SDS011;127;48.770;9.212;2023-05-17T18:49:43;9.60;;;3.60;;
286;SDS011;127;48.770;9.212;2023-05-17T18:52:13;10.27;;;4.70;;
286;SDS011;127;48.770;9.212;2023-05-17T18:54:42;8.30;;;4.80;;
286;SDS011;127;48.770;9.212;2023-05-17T18:57:11;8.57;;;4.77;;
286;SDS011;127;48.770;9.212;2023-05-17T18:59:40;10.40;;;4.40;;
286;SDS011;127;48.770;9.212;2023-05-17T19:02:15;9.10;;;4.20;;
286;SDS011;127;48.770;9.212;2023-05-17T19:04:46;10.03;;;5.07;;
286;SDS011;127;48.770;9.212;2023-05-17T19:07:23;9.50;;;5.27;;
286;SDS011;127;48.770;9.212;2023-05-17T19:09:58;10.47;;;4.80;;
286;SDS011;127;48.770;9.212;2023-05-17T19:12:28;11.17;;;5.17;;
286;SDS011;127;48.770;9.212;2023-05-17T19:15:01;12.47;;;4.73;;
286;SDS011;127;48.770;9.212;2023-05-17T19:17:38;13.00;;;5.10;;
286;SDS011;127;48.770;9.212;2023-05-17T19:20:07;8.57;;;4.63;;
286;SDS011;127;48.770;9.212;2023-05-17T19:22:37;12.47;;;5.10;;
286;SDS011;127;48.770;9.212;2023-05-17T19:25:10;8.17;;;4.40;;
286;SDS011;127;48.770;9.212;2023-05-17T19:27:38;15.43;;;5.07;;
286;SDS011;127;48.770;9.212;2023-05-17T19:30:08;11.23;;;5.87;;
286;SDS011;127;48.770;9.212;2023-05-17T19:32:39;13.63;;;5.03;;
286;SDS011;127;48.770;9.212;2023-05-17T19:35:10;10.00;;;4.90;;
286;SDS011;127;48.770;9.212;2023-05-17T19:37:38;9.23;;;4.50;;
286;SDS011;127;48.770;9.212;2023-05-17T19:40:08;6.47;;;4.27;;
286;SDS011;127;48.770;9.212;2023-05-17T19:42:38;11.27;;;5.10;;
286;SDS011;127;48.770;9.212;2023-05-17T19:45:10;9.63;;;5.07;;
286;SDS011;127;48.770;9.212;2023-05-17T19:47:42;9.40;;;4.43;;
286;SDS011;127;48.770;9.212;2023-05-17T19:50:13;7.63;;;4.57;;
286;SDS011;127;48.770;9.212;2023-05-17T19:52:41;9.67;;;4.40;;
286;SDS011;127;48.770;9.212;2023-05-17T19:55:10;17.30;;;5.00;;
286;SDS011;127;48.770;9.212;2023-05-17T19:57:40;10.10;;;4.93;;
286;SDS011;127;48.770;9.212;2023-05-17T20:00:09;10.43;;;4.65;;
286;SDS011;127;48.770;9.212;2023-05-17T20:02:54;11.20;;;5.00;;
286;SDS011;127;48.770;9.212;2023-05-17T20:05:25;11.30;;;6.03;;
286;SDS011;127;48.770;9.212;2023-05-17T20:07:54;15.73;;;4.73;;